Relevés horaires Beauvechain (Belgique)


Relevés horaires à Beauvechain - Dimanche 15 Juill. 2018
Heure UTC1 Température [°C] Vent [km/h] Hum. [%] Pres.4 [hPa] Visi. [Km] Nébu. [octa] Préc.5 [mm] Cond.
2m. Res. Ros. Dir.2 Vit. Moy. Raf.3
23:00 21.0 21.0 8.1 NNO 1.9 -- 1.9 43 1015(0.2/3h) 20 -- -- --
22:00 21.8 21.8 8.3 NNO 1.9 -- 1.9 42 1015(0.6/3h) 20 -- -- --
21:00 22.8 22.8 8.9 NNO 1.9 -- 5.6 41 1014.8(0.9/3h) 20 -- -- --
20:00 23.2 23.2 9.0 NNO 1.9 -- 3.7 40 1014.6(0.7/3h) 20 -- -- --
19:00 24.2 24.2 10.0 NNO 1.9 -- 5.6 41 1014.2(0.1/3h) 20 -- -- --
18:00 26.0 26.0 8.1 NNO 3.7 -- 11.1 32 1013.7(-0.7/3h) 20 -- -- --
17:00 28.2 28.2 6.9 NNO 3.7 -- 9.3 26 1013.6(-1.0/3h) 20 -- -- --
16:00 28.1 28.1 6.1 N 5.6 -- 11.1 25 1013.8(-1.5/3h) 20 -- -- --
15:00 28.0 28.0 5.8 ENE 3.7 -- 11.1 24 1014.3(-1.5/3h) 20 -- -- --
14:00 28.1 28.1 6.6 NE 3.7 -- 11.1 26 1014.7(-1.7/3h) 20 1/8 -- --
13:00 26.9 26.9 6.4 NNO 1.9 -- 9.3 27 1015.5(-1.4/3h) 20 1/8 -- --
12:00 26.3 26.3 6.4 NNO 1.9 -- 11.1 28 1016.1(-1.0/3h) 20 1/8 -- --
11:00 26.2 26.2 7.3 NNE 3.7 -- 9.3 30 1016.7(-0.6/3h) 20 1/8 -- --
10:00 24.7 24.7 9.2 E 3.7 -- 11.1 37 1017(-0.4/3h) 20 1/8 -- --
09:00 24.2 24.2 9.7 E 3.7 -- 9.3 40 1017.2(-0.1/3h) 20 -- -- --
08:00 22.1 22.1 11.7 E 3.7 -- 7.4 52 1017.5(0.2/3h) 20 -- -- --
07:00 20.3 20.3 11.5 E 5.6 -- 7.4 57 1017.7(0.2/3h) 20 -- -- --
06:00 17.9 17.9 10.6 E 3.7 -- 7.4 62 1017.7(-0.1/3h) 20 -- -- --
05:00 16.0 16.0 10.5 NNO 1.9 -- 3.7 70 1017.5(-0.5/3h) 20 -- -- --
04:00 14.5 14.5 9.8 NNO 1.9 -- 3.7 73 1017.7(-0.7/3h) 20 -- -- --
03:00 15.6 15.6 9.8 NNO 1.9 -- 3.7 68 1017.8(-0.7/3h) 20 -- -- --
02:00 16.3 16.3 9.6 NNO 1.9 -- 3.7 64 1018.1(-0.7/3h) 20 -- -- --
01:00 17.0 17.0 9.5 NNO 1.9 -- 1.9 61 1018.3(-0.3/3h) 20 -- -- --
00:00 17.7 17.7 9.4 NNO 1.9 -- 7.4 58 1018.6(0.0/3h) 20 -- -- --

1 Coordinated Universal Time. Actuellement il est 13:00 locale et 12:00 UTC.

2 Le vent souffle depuis la direction indiquée vers la direction oposée.

3 Les rafales max. sont disponible 40 min après l'heure du relevé.

4 Pour les stations d'altitude (plus de 600m) le géopotentiel du niveau le plus proche de la pression obligatoire est indiqué.

5 Les stations disposant d'un diffuseur peuvent indiquer "trace". Cela signifie que des précipitations ont touchés le sol mais que la quantité est inférieure à 0.1 mm.

Récapitulatif de la journée
Température [°C] Vent [km/h] Ensoleillement4 [h] Precipitations totale5 [mm] Pression [Hpa]
Min1 Max.2 Moy.3 Max. Min Max.
14.5 28.8 0 11.1 0 h 0 min 0 1013.6 1018.6

1 Température minimale relevée entre 18:00 UTC la veille et 18:00 UTC le jour donné.

2 Température maximale relevée entre 06:00 UTC le jour donné et 06:00 UTC le lendemain.

3 Vent moyen de la journée basé sur les relevés horaires.

4 Ensoleillement en heures relevé entre 06:00 UTC la veille et 06:00 UTC le jour donné.

5 Précipitations totales tombées entre 06:00 UTC la jour donné et 06:00 UTC le lendemain.

Graphiques horaires